sensor_id;sensor_type;location;lat;lon;timestamp;pressure;altitude;pressure_sealevel;temperature;humidity
61880;BME280;47817;52.798;27.544;2022-08-27T00:03:11;1022.5;;;23.8;41
61880;BME280;47817;52.798;27.544;2022-08-27T00:08:13;1022.4;;;23.8;40.9
61880;BME280;47817;52.798;27.544;2022-08-27T00:13:33;1022.4;;;23.8;40.8
61880;BME280;47817;52.798;27.544;2022-08-27T00:18:34;1022.4;;;23.8;40.8
61880;BME280;47817;52.798;27.544;2022-08-27T00:23:15;1022.4;;;23.8;40.8
61880;BME280;47817;52.798;27.544;2022-08-27T00:28:03;1022.4;;;23.8;41.2
61880;BME280;47817;52.798;27.544;2022-08-27T00:32:53;1022.3;;;23.7;41.3
61880;BME280;47817;52.798;27.544;2022-08-27T00:38:04;1022.4;;;23.6;41.3
61880;BME280;47817;52.798;27.544;2022-08-27T00:43:09;1022.4;;;23.6;41.2
61880;BME280;47817;52.798;27.544;2022-08-27T00:47:54;1022.4;;;23.5;41.4
61880;BME280;47817;52.798;27.544;2022-08-27T00:53:26;1022.4;;;23.4;41.3
61880;BME280;47817;52.798;27.544;2022-08-27T00:58:28;1022.3;;;23.4;41.2
61880;BME280;47817;52.798;27.544;2022-08-27T01:03:12;1022.3;;;23.3;41.6
61880;BME280;47817;52.798;27.544;2022-08-27T01:08:35;1022.3;;;23.3;41.8
61880;BME280;47817;52.798;27.544;2022-08-27T01:13:28;1022.3;;;23.2;42
61880;BME280;47817;52.798;27.544;2022-08-27T01:18:03;1022.3;;;23.1;42.2
61880;BME280;47817;52.798;27.544;2022-08-27T01:23:12;1022.3;;;23;42.1
61880;BME280;47817;52.798;27.544;2022-08-27T01:27:56;1022.3;;;23;42.1
61880;BME280;47817;52.798;27.544;2022-08-27T01:33:31;1022.3;;;22.9;42.3
61880;BME280;47817;52.798;27.544;2022-08-27T01:38:19;1022.3;;;22.9;42.4
61880;BME280;47817;52.798;27.544;2022-08-27T01:43:31;1022.3;;;22.8;42.5
61880;BME280;47817;52.798;27.544;2022-08-27T01:48:14;1022.3;;;22.7;42.8
61880;BME280;47817;52.798;27.544;2022-08-27T01:53:26;1022.3;;;22.6;43.3
61880;BME280;47817;52.798;27.544;2022-08-27T01:58:16;1022.3;;;22.6;43.2
61880;BME280;47817;52.798;27.544;2022-08-27T02:03:17;1022.3;;;22.5;43.1
61880;BME280;47817;52.798;27.544;2022-08-27T02:07:54;1022.3;;;22.5;43
61880;BME280;47817;52.798;27.544;2022-08-27T02:13:02;1022.2;;;22.5;43
61880;BME280;47817;52.798;27.544;2022-08-27T02:18:14;1022.2;;;22.4;43.1
61880;BME280;47817;52.798;27.544;2022-08-27T02:23:37;1022.3;;;22.4;43.3
61880;BME280;47817;52.798;27.544;2022-08-27T02:28:37;1022.3;;;22.3;43.9
61880;BME280;47817;52.798;27.544;2022-08-27T02:33:09;1022.4;;;22.2;44.4
61880;BME280;47817;52.798;27.544;2022-08-27T02:38:10;1022.4;;;22.1;44.7
61880;BME280;47817;52.798;27.544;2022-08-27T02:43:35;1022.4;;;22.1;44.9
61880;BME280;47817;52.798;27.544;2022-08-27T02:48:36;1022.4;;;22;45.1
61880;BME280;47817;52.798;27.544;2022-08-27T02:53:15;1022.3;;;22;45.3
61880;BME280;47817;52.798;27.544;2022-08-27T02:57:54;1022.3;;;21.9;45.2
61880;BME280;47817;52.798;27.544;2022-08-27T03:02:54;1022.3;;;21.9;45.5
61880;BME280;47817;52.798;27.544;2022-08-27T03:08:04;1022.2;;;21.8;46
61880;BME280;47817;52.798;27.544;2022-08-27T03:13:11;1022.2;;;21.8;46.3
61880;BME280;47817;52.798;27.544;2022-08-27T03:17:53;1022.2;;;21.7;46.5
61880;BME280;47817;52.798;27.544;2022-08-27T03:23:27;1022.2;;;21.8;46.2
61880;BME280;47817;52.798;27.544;2022-08-27T03:28:27;1022.2;;;21.8;46.3
61880;BME280;47817;52.798;27.544;2022-08-27T03:33:13;1022.2;;;21.8;46.3
61880;BME280;47817;52.798;27.544;2022-08-27T03:38:36;1022.2;;;21.8;46.4
61880;BME280;47817;52.798;27.544;2022-08-27T03:43:27;1022.2;;;21.9;46.4
61880;BME280;47817;52.798;27.544;2022-08-27T03:48:03;1022.2;;;21.9;46.6
61880;BME280;47817;52.798;27.544;2022-08-27T03:52:53;1022.2;;;21.9;46.9
61880;BME280;47817;52.798;27.544;2022-08-27T03:58:03;1022.3;;;21.8;47.2
61880;BME280;47817;52.798;27.544;2022-08-27T04:03:36;1022.3;;;21.8;46.9
61880;BME280;47817;52.798;27.544;2022-08-27T04:07:54;1022.3;;;21.9;46.6
61880;BME280;47817;52.798;27.544;2022-08-27T04:13:39;1022.2;;;21.8;47.1
61880;BME280;47817;52.798;27.544;2022-08-27T04:18:23;1022.2;;;21.8;47.6
61880;BME280;47817;52.798;27.544;2022-08-27T04:23:25;1022.1;;;21.9;47.9
61880;BME280;47817;52.798;27.544;2022-08-27T04:28:18;1022.1;;;21.9;48.3
61880;BME280;47817;52.798;27.544;2022-08-27T04:33:21;1022.1;;;22;48.3
61880;BME280;47817;52.798;27.544;2022-08-27T04:38:12;1022;;;22.1;48.1
61880;BME280;47817;52.798;27.544;2022-08-27T04:42:54;1022;;;22.2;47.9
61880;BME280;47817;52.798;27.544;2022-08-27T04:47:54;1021.9;;;22.4;47.9
61880;BME280;47817;52.798;27.544;2022-08-27T04:53:10;1021.9;;;22.5;47.9
61880;BME280;47817;52.798;27.544;2022-08-27T04:58:35;1021.9;;;22.7;47.9
61880;BME280;47817;52.798;27.544;2022-08-27T05:03:22;1021.9;;;22.9;47.7
61880;BME280;47817;52.798;27.544;2022-08-27T05:08:16;1021.9;;;23.1;48
61880;BME280;47817;52.798;27.544;2022-08-27T05:13:04;1021.9;;;23.2;48.3
61880;BME280;47817;52.798;27.544;2022-08-27T05:18:17;1021.9;;;23.3;47.9
61880;BME280;47817;52.798;27.544;2022-08-27T05:23:28;1021.8;;;23.5;47.5
61880;BME280;47817;52.798;27.544;2022-08-27T05:28:14;1021.9;;;23.7;47.1
61880;BME280;47817;52.798;27.544;2022-08-27T05:33:02;1021.9;;;23.9;46.9
61880;BME280;47817;52.798;27.544;2022-08-27T05:38:06;1021.9;;;24;46.8
61880;BME280;47817;52.798;27.544;2022-08-27T05:43:26;1022;;;24.1;46.9
61880;BME280;47817;52.798;27.544;2022-08-27T05:48:12;1022;;;24.1;47
61880;BME280;47817;52.798;27.544;2022-08-27T05:53:12;1022;;;24.1;47
61880;BME280;47817;52.798;27.544;2022-08-27T05:58:28;1022;;;24.3;46.8
61880;BME280;47817;52.798;27.544;2022-08-27T06:03:38;1022;;;24.4;46.4
61880;BME280;47817;52.798;27.544;2022-08-27T06:08:26;1022;;;24.6;45.9
61880;BME280;47817;52.798;27.544;2022-08-27T06:13:40;1022;;;24.8;45.4
61880;BME280;47817;52.798;27.544;2022-08-27T06:18:40;1022;;;25;45.2
61880;BME280;47817;52.798;27.544;2022-08-27T06:23:04;1021.9;;;25.2;44.9
61880;BME280;47817;52.798;27.544;2022-08-27T06:27:54;1021.9;;;25.4;44.5
61880;BME280;47817;52.798;27.544;2022-08-27T06:33:24;1021.9;;;25.5;44.6
61880;BME280;47817;52.798;27.544;2022-08-27T06:38:40;1021.9;;;25.6;44.3
61880;BME280;47817;52.798;27.544;2022-08-27T06:43:26;1021.9;;;25.7;44
61880;BME280;47817;52.798;27.544;2022-08-27T06:48:24;1021.9;;;25.9;43.9
61880;BME280;47817;52.798;27.544;2022-08-27T06:53:18;1021.9;;;26.1;43.7
61880;BME280;47817;52.798;27.544;2022-08-27T06:58:18;1021.9;;;26.2;43.5
61880;BME280;47817;52.798;27.544;2022-08-27T07:03:16;1021.9;;;26.4;43
61880;BME280;47817;52.798;27.544;2022-08-27T07:08:26;1021.9;;;26.6;42.8
61880;BME280;47817;52.798;27.544;2022-08-27T07:12:54;1021.9;;;26.8;42.5
61880;BME280;47817;52.798;27.544;2022-08-27T07:17:54;1021.9;;;26.9;42.2
61880;BME280;47817;52.798;27.544;2022-08-27T07:23:14;1021.8;;;27.1;41.9
61880;BME280;47817;52.798;27.544;2022-08-27T07:28:40;1021.8;;;27.4;41.3
61880;BME280;47817;52.798;27.544;2022-08-27T07:33:38;1021.8;;;27.7;40.8
61880;BME280;47817;52.798;27.544;2022-08-27T07:38:18;1021.8;;;28;40
61880;BME280;47817;52.798;27.544;2022-08-27T07:43:16;1021.8;;;28.2;39.3
61880;BME280;47817;52.798;27.544;2022-08-27T07:48:40;1021.8;;;28.6;38.7
61880;BME280;47817;52.798;27.544;2022-08-27T07:53:38;1021.8;;;28.8;38.2
61880;BME280;47817;52.798;27.544;2022-08-27T07:58:18;1021.8;;;29.1;37.3
61880;BME280;47817;52.798;27.544;2022-08-27T08:03:00;1021.7;;;29.4;36.3
61880;BME280;47817;52.798;27.544;2022-08-27T08:08:02;1021.6;;;29.7;36
61880;BME280;47817;52.798;27.544;2022-08-27T08:13:24;1021.6;;;30.1;35.2
61880;BME280;47817;52.798;27.544;2022-08-27T08:18:12;1021.5;;;30.4;33.7
61880;BME280;47817;52.798;27.544;2022-08-27T08:23:12;1021.5;;;30.7;32.9
61880;BME280;47817;52.798;27.544;2022-08-27T08:27:54;1021.5;;;30.8;32.1
61880;BME280;47817;52.798;27.544;2022-08-27T08:33:16;1021.5;;;31;31
61880;BME280;47817;52.798;27.544;2022-08-27T08:38:26;1021.5;;;31.2;30.5
61880;BME280;47817;52.798;27.544;2022-08-27T08:43:39;1021.4;;;31.5;30.2
61880;BME280;47817;52.798;27.544;2022-08-27T08:48:39;1021.4;;;31.7;29.6
61880;BME280;47817;52.798;27.544;2022-08-27T08:53:17;1021.4;;;31.9;29.1
61880;BME280;47817;52.798;27.544;2022-08-27T08:58:15;1021.4;;;32.1;28.5
61880;BME280;47817;52.798;27.544;2022-08-27T09:03:14;1021.4;;;32.3;28.2
61880;BME280;47817;52.798;27.544;2022-08-27T09:08:39;1021.4;;;32.4;27.4
61880;BME280;47817;52.798;27.544;2022-08-27T09:13:27;1021.4;;;32.4;27.5
61880;BME280;47817;52.798;27.544;2022-08-27T09:18:39;1021.5;;;32.3;28
61880;BME280;47817;52.798;27.544;2022-08-27T09:23:28;1021.5;;;32.4;28
61880;BME280;47817;52.798;27.544;2022-08-27T09:28:28;1021.4;;;32.6;27.8
61880;BME280;47817;52.798;27.544;2022-08-27T09:32:56;1021.4;;;32.9;27.3
61880;BME280;47817;52.798;27.544;2022-08-27T09:38:27;1021.4;;;33;26.9
61880;BME280;47817;52.798;27.544;2022-08-27T09:43:06;1021.4;;;33.3;26.7
61880;BME280;47817;52.798;27.544;2022-08-27T09:48:18;1021.3;;;33.4;26.9
61880;BME280;47817;52.798;27.544;2022-08-27T09:53:14;1021.3;;;33.4;27
61880;BME280;47817;52.798;27.544;2022-08-27T09:58:46;1021.4;;;33.4;26.7
61880;BME280;47817;52.798;27.544;2022-08-27T10:03:38;1021.3;;;33.6;26.3
61880;BME280;47817;52.798;27.544;2022-08-27T10:08:27;1021.3;;;33.7;26.1
61880;BME280;47817;52.798;27.544;2022-08-27T10:13:17;1021.3;;;33.8;25.7
61880;BME280;47817;52.798;27.544;2022-08-27T10:18:42;1021.3;;;33.9;24.7
61880;BME280;47817;52.798;27.544;2022-08-27T10:23:44;1021.3;;;33.8;23.4
61880;BME280;47817;52.798;27.544;2022-08-27T10:28:27;1021.3;;;33.7;23.2
61880;BME280;47817;52.798;27.544;2022-08-27T10:33:07;1021.3;;;33.5;23.2
61880;BME280;47817;52.798;27.544;2022-08-27T10:38:01;1021.3;;;33.7;23.1
61880;BME280;47817;52.798;27.544;2022-08-27T10:48:16;1021.2;;;34.1;23.1
61880;BME280;47817;52.798;27.544;2022-08-27T10:53:24;1021.2;;;34.4;22.8
61880;BME280;47817;52.798;27.544;2022-08-27T11:03:33;1021.1;;;34.9;22
61880;BME280;47817;52.798;27.544;2022-08-27T11:07:55;1021.2;;;35;21.2
61880;BME280;47817;52.798;27.544;2022-08-27T11:13:42;1021.1;;;34.8;21.4
61880;BME280;47817;52.798;27.544;2022-08-27T11:18:53;1021.1;;;35;21.6
61880;BME280;47817;52.798;27.544;2022-08-27T11:23:23;1021;;;35.5;21.6
61880;BME280;47817;52.798;27.544;2022-08-27T11:27:54;1021;;;35.7;21.1
61880;BME280;47817;52.798;27.544;2022-08-27T11:33:17;1021;;;35.9;20.5
61880;BME280;47817;52.798;27.544;2022-08-27T11:38:43;1021;;;36.1;20.1
61880;BME280;47817;52.798;27.544;2022-08-27T11:43:25;1020.9;;;36.2;19.8
61880;BME280;47817;52.798;27.544;2022-08-27T11:48:40;1020.9;;;36.1;19.8
61880;BME280;47817;52.798;27.544;2022-08-27T11:53:25;1020.8;;;36.3;19.8
61880;BME280;47817;52.798;27.544;2022-08-27T11:58:30;1020.9;;;36.3;19.8
61880;BME280;47817;52.798;27.544;2022-08-27T12:03:35;1020.8;;;36.4;19.9
61880;BME280;47817;52.798;27.544;2022-08-27T12:08:28;1020.7;;;36.7;19.7
61880;BME280;47817;52.798;27.544;2022-08-27T12:17:58;1020.7;;;37.3;19.1
61880;BME280;47817;52.798;27.544;2022-08-27T12:23:01;1020.7;;;37.4;18.8
61880;BME280;47817;52.798;27.544;2022-08-27T12:28:38;1020.6;;;37.3;18.6
61880;BME280;47817;52.798;27.544;2022-08-27T12:33:30;1020.5;;;37.3;18.7
61880;BME280;47817;52.798;27.544;2022-08-27T12:38:03;1020.5;;;37.5;18.8
61880;BME280;47817;52.798;27.544;2022-08-27T12:43:25;1020.5;;;37.4;18.8
61880;BME280;47817;52.798;27.544;2022-08-27T12:48:40;1020.5;;;37.4;18.6
61880;BME280;47817;52.798;27.544;2022-08-27T12:53:42;1020.5;;;37.3;18.1
61880;BME280;47817;52.798;27.544;2022-08-27T12:58:25;1020.5;;;37.1;17.9
61880;BME280;47817;52.798;27.544;2022-08-27T13:03:37;1020.5;;;37.1;17.5
61880;BME280;47817;52.798;27.544;2022-08-27T13:08:26;1020.5;;;37.1;17.2
61880;BME280;47817;52.798;27.544;2022-08-27T13:13:03;1020.5;;;37.1;17.3
61880;BME280;47817;52.798;27.544;2022-08-27T13:18:26;1020.6;;;37.5;17.3
61880;BME280;47817;52.798;27.544;2022-08-27T13:23:15;1020.6;;;39.1;16.1
61880;BME280;47817;52.798;27.544;2022-08-27T13:28:03;1020.5;;;40.3;15.1
61880;BME280;47817;52.798;27.544;2022-08-27T13:33:30;1020.5;;;41.8;14.2
61880;BME280;47817;52.798;27.544;2022-08-27T13:38:40;1020.5;;;42.6;13.4
61880;BME280;47817;52.798;27.544;2022-08-27T13:43:28;1020.6;;;43.2;12.7
61880;BME280;47817;52.798;27.544;2022-08-27T13:48:40;1020.6;;;43.9;12.1
61880;BME280;47817;52.798;27.544;2022-08-27T13:53:42;1020.6;;;44.9;11.6
61880;BME280;47817;52.798;27.544;2022-08-27T13:58:17;1020.5;;;46.8;10.9
61880;BME280;47817;52.798;27.544;2022-08-27T14:03:02;1020.5;;;47.3;10.7
61880;BME280;47817;52.798;27.544;2022-08-27T14:08:15;1020.5;;;48;10.4
61880;BME280;47817;52.798;27.544;2022-08-27T14:13:42;1020.5;;;48;10.1
61880;BME280;47817;52.798;27.544;2022-08-27T14:18:27;1020.5;;;47.9;9.9
61880;BME280;47817;52.798;27.544;2022-08-27T14:23:24;1020.6;;;48.3;9.6
61880;BME280;47817;52.798;27.544;2022-08-27T14:28:16;1020.6;;;48.9;9.3
61880;BME280;47817;52.798;27.544;2022-08-27T14:33:14;1020.6;;;48.9;9.2
61880;BME280;47817;52.798;27.544;2022-08-27T14:38:17;1020.7;;;44.8;11.1
61880;BME280;47817;52.798;27.544;2022-08-27T14:43:26;1020.7;;;42.2;12.4
61880;BME280;47817;52.798;27.544;2022-08-27T14:47:54;1020.7;;;41.4;13
61880;BME280;47817;52.798;27.544;2022-08-27T14:53:04;1020.7;;;42.1;12.8
61880;BME280;47817;52.798;27.544;2022-08-27T14:58:38;1020.6;;;45.1;11.3
61880;BME280;47817;52.798;27.544;2022-08-27T15:03:36;1020.6;;;46.8;10.5
61880;BME280;47817;52.798;27.544;2022-08-27T15:08:27;1020.6;;;43.9;12.1
61880;BME280;47817;52.798;27.544;2022-08-27T15:13:16;1020.6;;;41.6;13.6
61880;BME280;47817;52.798;27.544;2022-08-27T15:18:24;1020.7;;;40.6;14.3
61880;BME280;47817;52.798;27.544;2022-08-27T15:23:40;1020.6;;;41.7;13.8
61880;BME280;47817;52.798;27.544;2022-08-27T15:28:40;1020.5;;;45.2;12.1
61880;BME280;47817;52.798;27.544;2022-08-27T15:33:14;1020.4;;;46.8;11.2
61880;BME280;47817;52.798;27.544;2022-08-27T15:38:04;1020.5;;;45.6;11.9
61880;BME280;47817;52.798;27.544;2022-08-27T15:43:16;1020.6;;;42;14.1
61880;BME280;47817;52.798;27.544;2022-08-27T15:48:26;1020.6;;;40.9;14.7
61880;BME280;47817;52.798;27.544;2022-08-27T15:52:56;1020.6;;;39.4;15.6
61880;BME280;47817;52.798;27.544;2022-08-27T15:58:14;1020.6;;;37.6;16.8
61880;BME280;47817;52.798;27.544;2022-08-27T16:03:28;1020.6;;;36.3;17.7
61880;BME280;47817;52.798;27.544;2022-08-27T16:08:38;1020.6;;;35.4;18.4
61880;BME280;47817;52.798;27.544;2022-08-27T16:13:26;1020.6;;;34.5;19.3
61880;BME280;47817;52.798;27.544;2022-08-27T16:18:38;1020.5;;;33.9;20.1
61880;BME280;47817;52.798;27.544;2022-08-27T16:23:40;1020.5;;;33.2;21.4
61880;BME280;47817;52.798;27.544;2022-08-27T16:28:16;1020.6;;;32.8;22.1
61880;BME280;47817;52.798;27.544;2022-08-27T16:32:54;1020.6;;;33.7;21.5
61880;BME280;47817;52.798;27.544;2022-08-27T16:38:26;1020.6;;;34.5;20.6
61880;BME280;47817;52.798;27.544;2022-08-27T16:43:40;1020.5;;;34.3;20.9
61880;BME280;47817;52.798;27.544;2022-08-27T16:48:26;1020.5;;;34.3;21.3
61880;BME280;47817;52.798;27.544;2022-08-27T16:53:26;1020.5;;;33.9;22.2
61880;BME280;47817;52.798;27.544;2022-08-27T16:58:27;1020.5;;;33.2;23.1
61880;BME280;47817;52.798;27.544;2022-08-27T17:03:16;1020.6;;;32.2;24.8
61880;BME280;47817;52.798;27.544;2022-08-27T17:08:18;1020.6;;;31.4;26.4
61880;BME280;47817;52.798;27.544;2022-08-27T17:13:28;1020.6;;;30.8;27.2
61880;BME280;47817;52.798;27.544;2022-08-27T17:17:56;1020.6;;;30.3;27.5
61880;BME280;47817;52.798;27.544;2022-08-27T17:22:56;1020.6;;;29.9;27.8
61880;BME280;47817;52.798;27.544;2022-08-27T17:28:14;1020.6;;;29.7;28.4
61880;BME280;47817;52.798;27.544;2022-08-27T17:33:41;1020.6;;;29.3;28.7
61880;BME280;47817;52.798;27.544;2022-08-27T17:38:40;1020.7;;;29;29.4
61880;BME280;47817;52.798;27.544;2022-08-27T17:42:56;1020.8;;;28.6;30.3
61880;BME280;47817;52.798;27.544;2022-08-27T17:48:18;1020.8;;;28.3;30.6
61880;BME280;47817;52.798;27.544;2022-08-27T17:53:42;1020.8;;;28;30.8
61880;BME280;47817;52.798;27.544;2022-08-27T17:58:40;1020.9;;;27.9;29.9
61880;BME280;47817;52.798;27.544;2022-08-27T18:02:56;1020.9;;;27.6;30.2
61880;BME280;47817;52.798;27.544;2022-08-27T18:08:06;1020.9;;;27.5;30.3
61880;BME280;47817;52.798;27.544;2022-08-27T18:13:06;1020.9;;;27.4;30.3
61880;BME280;47817;52.798;27.544;2022-08-27T18:17:56;1020.9;;;27.3;30.8
61880;BME280;47817;52.798;27.544;2022-08-27T18:23:07;1020.9;;;27.3;31.1
61880;BME280;47817;52.798;27.544;2022-08-27T18:28:16;1020.9;;;27.2;31.4
61880;BME280;47817;52.798;27.544;2022-08-27T18:33:22;1020.8;;;27.2;31.6
61880;BME280;47817;52.798;27.544;2022-08-27T18:38:30;1020.8;;;27.2;31.4
61880;BME280;47817;52.798;27.544;2022-08-27T18:43:20;1020.8;;;27.2;31
61880;BME280;47817;52.798;27.544;2022-08-27T18:48:42;1020.9;;;27.1;31.2
61880;BME280;47817;52.798;27.544;2022-08-27T18:53:33;1020.9;;;27;31.7
61880;BME280;47817;52.798;27.544;2022-08-27T18:58:08;1020.9;;;26.9;32.3
61880;BME280;47817;52.798;27.544;2022-08-27T19:03:04;1020.9;;;26.8;32.6
61880;BME280;47817;52.798;27.544;2022-08-27T19:08:06;1020.9;;;26.8;32.9
61880;BME280;47817;52.798;27.544;2022-08-27T19:13:42;1020.9;;;26.7;33.1
61880;BME280;47817;52.798;27.544;2022-08-27T19:18:26;1020.9;;;26.7;33.2
61880;BME280;47817;52.798;27.544;2022-08-27T19:23:40;1020.9;;;26.7;33.1
61880;BME280;47817;52.798;27.544;2022-08-27T19:28:29;1020.9;;;26.7;33
61880;BME280;47817;52.798;27.544;2022-08-27T19:33:20;1020.8;;;26.7;33
61880;BME280;47817;52.798;27.544;2022-08-27T19:38:18;1020.8;;;26.7;33
61880;BME280;47817;52.798;27.544;2022-08-27T19:43:26;1020.8;;;26.6;33.4
61880;BME280;47817;52.798;27.544;2022-08-27T19:48:18;1020.8;;;26.5;34.1
61880;BME280;47817;52.798;27.544;2022-08-27T19:52:56;1020.8;;;26.5;34.4
61880;BME280;47817;52.798;27.544;2022-08-27T19:57:56;1020.8;;;26.4;34.3
61880;BME280;47817;52.798;27.544;2022-08-27T20:03:38;1020.8;;;26.4;34.1
61880;BME280;47817;52.798;27.544;2022-08-27T20:08:40;1020.7;;;26.4;34.1
61880;BME280;47817;52.798;27.544;2022-08-27T20:13:05;1020.7;;;26.4;34.2
61880;BME280;47817;52.798;27.544;2022-08-27T20:18:16;1020.7;;;26.4;34.2
61880;BME280;47817;52.798;27.544;2022-08-27T20:23:40;1020.7;;;26.4;34.4
61880;BME280;47817;52.798;27.544;2022-08-27T20:28:38;1020.7;;;26.3;34.9
61880;BME280;47817;52.798;27.544;2022-08-27T20:32:56;1020.7;;;26.3;35.2
61880;BME280;47817;52.798;27.544;2022-08-27T20:37:56;1020.7;;;26.2;35.4
61880;BME280;47817;52.798;27.544;2022-08-27T20:42:56;1020.6;;;26.1;35.6
61880;BME280;47817;52.798;27.544;2022-08-27T20:48:07;1020.6;;;26.1;35.1
61880;BME280;47817;52.798;27.544;2022-08-27T20:53:14;1020.6;;;26;35.7
61880;BME280;47817;52.798;27.544;2022-08-27T20:58:28;1020.6;;;25.9;36.1
61880;BME280;47817;52.798;27.544;2022-08-27T21:03:28;1020.6;;;25.8;36.5
61880;BME280;47817;52.798;27.544;2022-08-27T21:08:30;1020.6;;;25.6;36.7
61880;BME280;47817;52.798;27.544;2022-08-27T21:13:20;1020.5;;;25.6;36.7
61880;BME280;47817;52.798;27.544;2022-08-27T21:18:42;1020.5;;;25.5;36.7
61880;BME280;47817;52.798;27.544;2022-08-27T21:23:30;1020.5;;;25.4;36.7
61880;BME280;47817;52.798;27.544;2022-08-27T21:27:56;1020.4;;;25.4;36.8
61880;BME280;47817;52.798;27.544;2022-08-27T21:33:26;1020.4;;;25.3;36.9
61880;BME280;47817;52.798;27.544;2022-08-27T21:37:57;1020.4;;;25.2;37.1
61880;BME280;47817;52.798;27.544;2022-08-27T21:43:38;1020.4;;;25.1;38
61880;BME280;47817;52.798;27.544;2022-08-27T21:48:24;1020.4;;;25.1;38.1
61880;BME280;47817;52.798;27.544;2022-08-27T21:53:26;1020.3;;;25;38.3
61880;BME280;47817;52.798;27.544;2022-08-27T21:58:14;1020.4;;;24.9;38.4
61880;BME280;47817;52.798;27.544;2022-08-27T22:03:23;1020.3;;;24.9;38.5
61880;BME280;47817;52.798;27.544;2022-08-27T22:08:17;1020.3;;;24.8;38.8
61880;BME280;47817;52.798;27.544;2022-08-27T22:13:16;1020.3;;;24.7;38.9
61880;BME280;47817;52.798;27.544;2022-08-27T22:18:28;1020.3;;;24.7;39.1
61880;BME280;47817;52.798;27.544;2022-08-27T22:23:07;1020.3;;;24.6;39.6
61880;BME280;47817;52.798;27.544;2022-08-27T22:28:08;1020.3;;;24.6;40.1
61880;BME280;47817;52.798;27.544;2022-08-27T22:33:16;1020.2;;;24.5;40.4
61880;BME280;47817;52.798;27.544;2022-08-27T22:38:38;1020.2;;;24.5;40.7
61880;BME280;47817;52.798;27.544;2022-08-27T22:43:38;1020.1;;;24.4;41
61880;BME280;47817;52.798;27.544;2022-08-27T22:48:18;1020.2;;;24.3;41.2
61880;BME280;47817;52.798;27.544;2022-08-27T22:53:38;1020.2;;;24.3;41.5
61880;BME280;47817;52.798;27.544;2022-08-27T22:58:38;1020.1;;;24.2;41.8
61880;BME280;47817;52.798;27.544;2022-08-27T23:03:34;1020.1;;;24.1;41.8
61880;BME280;47817;52.798;27.544;2022-08-27T23:08:17;1020.1;;;23.9;41.7
61880;BME280;47817;52.798;27.544;2022-08-27T23:12:56;1020.1;;;23.9;41.8
61880;BME280;47817;52.798;27.544;2022-08-27T23:18:18;1020.1;;;23.8;41.9
61880;BME280;47817;52.798;27.544;2022-08-27T23:23:24;1020.1;;;23.7;42
61880;BME280;47817;52.798;27.544;2022-08-27T23:28:00;1020.1;;;23.6;42.2
61880;BME280;47817;52.798;27.544;2022-08-27T23:33:08;1020.1;;;23.5;42.4
61880;BME280;47817;52.798;27.544;2022-08-27T23:38:32;1020;;;23.4;43.3
61880;BME280;47817;52.798;27.544;2022-08-27T23:43:34;1020;;;23.2;44
61880;BME280;47817;52.798;27.544;2022-08-27T23:48:24;1020;;;23.2;44.4
61880;BME280;47817;52.798;27.544;2022-08-27T23:53:35;1020;;;23.2;43.7
61880;BME280;47817;52.798;27.544;2022-08-27T23:58:36;1020;;;23.2;43.9
